sensor_id;sensor_type;location;lat;lon;timestamp;P1;durP1;ratioP1;P2;durP2;ratioP2
59109;SDS011;44895;47.438;18.978;2023-07-13T00:01:28;10.93;;;4.00;;
59109;SDS011;44895;47.438;18.978;2023-07-13T00:04:32;10.02;;;3.67;;
59109;SDS011;44895;47.438;18.978;2023-07-13T00:07:36;6.00;;;2.80;;
59109;SDS011;44895;47.438;18.978;2023-07-13T00:10:40;7.28;;;3.28;;
59109;SDS011;44895;47.438;18.978;2023-07-13T00:13:45;7.88;;;2.20;;
59109;SDS011;44895;47.438;18.978;2023-07-13T00:16:49;8.15;;;1.60;;
59109;SDS011;44895;47.438;18.978;2023-07-13T00:19:54;5.05;;;1.83;;
59109;SDS011;44895;47.438;18.978;2023-07-13T00:23:00;3.17;;;1.40;;
59109;SDS011;44895;47.438;18.978;2023-07-13T00:26:05;5.82;;;1.65;;
59109;SDS011;44895;47.438;18.978;2023-07-13T00:29:11;6.15;;;1.55;;
59109;SDS011;44895;47.438;18.978;2023-07-13T00:32:16;5.22;;;1.77;;
59109;SDS011;44895;47.438;18.978;2023-07-13T00:35:20;6.90;;;2.15;;
59109;SDS011;44895;47.438;18.978;2023-07-13T00:38:24;5.25;;;1.83;;
59109;SDS011;44895;47.438;18.978;2023-07-13T00:41:27;8.32;;;1.83;;
59109;SDS011;44895;47.438;18.978;2023-07-13T00:44:31;6.22;;;2.17;;
59109;SDS011;44895;47.438;18.978;2023-07-13T00:47:36;5.25;;;2.10;;
59109;SDS011;44895;47.438;18.978;2023-07-13T00:50:40;6.90;;;2.40;;
59109;SDS011;44895;47.438;18.978;2023-07-13T00:53:45;7.45;;;2.13;;
59109;SDS011;44895;47.438;18.978;2023-07-13T00:56:51;6.72;;;2.22;;
59109;SDS011;44895;47.438;18.978;2023-07-13T00:59:58;8.48;;;2.47;;
59109;SDS011;44895;47.438;18.978;2023-07-13T01:03:10;4.70;;;2.13;;
59109;SDS011;44895;47.438;18.978;2023-07-13T01:06:14;8.68;;;2.17;;
59109;SDS011;44895;47.438;18.978;2023-07-13T01:09:19;6.10;;;2.40;;
59109;SDS011;44895;47.438;18.978;2023-07-13T01:12:23;6.03;;;2.55;;
59109;SDS011;44895;47.438;18.978;2023-07-13T01:18:37;9.60;;;2.63;;
59109;SDS011;44895;47.438;18.978;2023-07-13T01:21:42;7.03;;;2.20;;
59109;SDS011;44895;47.438;18.978;2023-07-13T01:24:47;6.53;;;2.20;;
59109;SDS011;44895;47.438;18.978;2023-07-13T01:27:53;5.97;;;2.00;;
59109;SDS011;44895;47.438;18.978;2023-07-13T01:30:58;5.28;;;2.55;;
59109;SDS011;44895;47.438;18.978;2023-07-13T01:34:02;9.23;;;2.60;;
59109;SDS011;44895;47.438;18.978;2023-07-13T01:37:06;4.80;;;2.10;;
59109;SDS011;44895;47.438;18.978;2023-07-13T01:40:11;10.25;;;3.20;;
59109;SDS011;44895;47.438;18.978;2023-07-13T01:43:16;6.30;;;2.67;;
59109;SDS011;44895;47.438;18.978;2023-07-13T01:46:22;4.35;;;1.33;;
59109;SDS011;44895;47.438;18.978;2023-07-13T01:49:26;6.93;;;2.72;;
59109;SDS011;44895;47.438;18.978;2023-07-13T01:52:30;5.07;;;2.45;;
59109;SDS011;44895;47.438;18.978;2023-07-13T01:55:35;8.52;;;2.20;;
59109;SDS011;44895;47.438;18.978;2023-07-13T01:58:39;5.18;;;2.22;;
59109;SDS011;44895;47.438;18.978;2023-07-13T02:01:43;7.18;;;2.67;;
59109;SDS011;44895;47.438;18.978;2023-07-13T02:04:47;6.93;;;2.38;;
59109;SDS011;44895;47.438;18.978;2023-07-13T02:07:51;6.50;;;2.72;;
59109;SDS011;44895;47.438;18.978;2023-07-13T02:10:56;4.72;;;1.90;;
59109;SDS011;44895;47.438;18.978;2023-07-13T02:14:01;8.32;;;2.42;;
59109;SDS011;44895;47.438;18.978;2023-07-13T02:17:05;7.80;;;2.33;;
59109;SDS011;44895;47.438;18.978;2023-07-13T02:20:10;11.27;;;3.15;;
59109;SDS011;44895;47.438;18.978;2023-07-13T02:23:14;5.30;;;2.03;;
59109;SDS011;44895;47.438;18.978;2023-07-13T02:26:18;6.03;;;2.35;;
59109;SDS011;44895;47.438;18.978;2023-07-13T02:29:22;7.30;;;2.40;;
59109;SDS011;44895;47.438;18.978;2023-07-13T02:32:26;6.68;;;2.45;;
59109;SDS011;44895;47.438;18.978;2023-07-13T02:35:30;6.65;;;2.45;;
59109;SDS011;44895;47.438;18.978;2023-07-13T02:38:35;5.82;;;2.50;;
59109;SDS011;44895;47.438;18.978;2023-07-13T02:41:40;6.43;;;2.38;;
59109;SDS011;44895;47.438;18.978;2023-07-13T02:44:44;6.07;;;2.25;;
59109;SDS011;44895;47.438;18.978;2023-07-13T02:47:48;5.88;;;2.42;;
59109;SDS011;44895;47.438;18.978;2023-07-13T02:50:52;7.32;;;3.25;;
59109;SDS011;44895;47.438;18.978;2023-07-13T02:53:57;7.00;;;3.67;;
59109;SDS011;44895;47.438;18.978;2023-07-13T02:57:02;5.88;;;2.40;;
59109;SDS011;44895;47.438;18.978;2023-07-13T03:00:06;6.88;;;3.05;;
59109;SDS011;44895;47.438;18.978;2023-07-13T03:03:12;6.35;;;2.33;;
59109;SDS011;44895;47.438;18.978;2023-07-13T03:06:18;7.22;;;2.42;;
59109;SDS011;44895;47.438;18.978;2023-07-13T03:09:27;6.57;;;2.50;;
59109;SDS011;44895;47.438;18.978;2023-07-13T03:12:33;6.50;;;2.38;;
59109;SDS011;44895;47.438;18.978;2023-07-13T03:15:38;6.18;;;2.72;;
59109;SDS011;44895;47.438;18.978;2023-07-13T03:18:42;9.65;;;2.15;;
59109;SDS011;44895;47.438;18.978;2023-07-13T03:21:48;8.60;;;3.03;;
59109;SDS011;44895;47.438;18.978;2023-07-13T03:24:54;6.45;;;2.45;;
59109;SDS011;44895;47.438;18.978;2023-07-13T03:27:59;7.03;;;2.90;;
59109;SDS011;44895;47.438;18.978;2023-07-13T03:31:08;7.28;;;2.90;;
59109;SDS011;44895;47.438;18.978;2023-07-13T03:34:15;7.20;;;2.92;;
59109;SDS011;44895;47.438;18.978;2023-07-13T03:37:19;7.85;;;3.03;;
59109;SDS011;44895;47.438;18.978;2023-07-13T03:40:25;10.85;;;2.67;;
59109;SDS011;44895;47.438;18.978;2023-07-13T03:43:30;4.20;;;1.80;;
59109;SDS011;44895;47.438;18.978;2023-07-13T03:46:34;6.53;;;2.67;;
59109;SDS011;44895;47.438;18.978;2023-07-13T03:49:39;5.90;;;2.08;;
59109;SDS011;44895;47.438;18.978;2023-07-13T03:52:43;8.65;;;3.42;;
59109;SDS011;44895;47.438;18.978;2023-07-13T03:55:52;6.05;;;2.38;;
59109;SDS011;44895;47.438;18.978;2023-07-13T03:58:57;6.30;;;2.72;;
59109;SDS011;44895;47.438;18.978;2023-07-13T04:02:01;6.43;;;2.10;;
59109;SDS011;44895;47.438;18.978;2023-07-13T04:05:10;5.22;;;2.03;;
59109;SDS011;44895;47.438;18.978;2023-07-13T04:08:14;6.32;;;2.30;;
59109;SDS011;44895;47.438;18.978;2023-07-13T04:11:19;5.18;;;2.50;;
59109;SDS011;44895;47.438;18.978;2023-07-13T04:14:24;11.30;;;3.13;;
59109;SDS011;44895;47.438;18.978;2023-07-13T04:17:29;7.05;;;2.55;;
59109;SDS011;44895;47.438;18.978;2023-07-13T04:20:33;5.45;;;1.90;;
59109;SDS011;44895;47.438;18.978;2023-07-13T04:23:37;8.55;;;3.03;;
59109;SDS011;44895;47.438;18.978;2023-07-13T04:26:42;5.95;;;2.70;;
59109;SDS011;44895;47.438;18.978;2023-07-13T04:29:46;10.90;;;3.63;;
59109;SDS011;44895;47.438;18.978;2023-07-13T04:32:50;8.52;;;2.60;;
59109;SDS011;44895;47.438;18.978;2023-07-13T04:35:56;6.15;;;1.95;;
59109;SDS011;44895;47.438;18.978;2023-07-13T04:39:01;5.15;;;1.88;;
59109;SDS011;44895;47.438;18.978;2023-07-13T04:42:05;9.25;;;2.92;;
59109;SDS011;44895;47.438;18.978;2023-07-13T04:45:10;8.98;;;2.90;;
59109;SDS011;44895;47.438;18.978;2023-07-13T04:48:14;8.70;;;3.00;;
59109;SDS011;44895;47.438;18.978;2023-07-13T04:51:18;8.02;;;3.25;;
59109;SDS011;44895;47.438;18.978;2023-07-13T04:54:22;6.70;;;3.03;;
59109;SDS011;44895;47.438;18.978;2023-07-13T04:57:27;6.13;;;2.50;;
59109;SDS011;44895;47.438;18.978;2023-07-13T05:00:33;8.98;;;3.30;;
59109;SDS011;44895;47.438;18.978;2023-07-13T05:03:36;8.93;;;3.28;;
59109;SDS011;44895;47.438;18.978;2023-07-13T05:06:40;9.30;;;3.70;;
59109;SDS011;44895;47.438;18.978;2023-07-13T05:09:45;14.32;;;4.47;;
59109;SDS011;44895;47.438;18.978;2023-07-13T05:12:49;15.07;;;4.57;;
59109;SDS011;44895;47.438;18.978;2023-07-13T05:15:57;8.63;;;3.30;;
59109;SDS011;44895;47.438;18.978;2023-07-13T05:19:03;9.23;;;3.88;;
59109;SDS011;44895;47.438;18.978;2023-07-13T05:22:07;7.53;;;3.55;;
59109;SDS011;44895;47.438;18.978;2023-07-13T05:25:11;10.60;;;4.13;;
59109;SDS011;44895;47.438;18.978;2023-07-13T05:28:16;7.95;;;3.00;;
59109;SDS011;44895;47.438;18.978;2023-07-13T05:31:20;5.72;;;2.67;;
59109;SDS011;44895;47.438;18.978;2023-07-13T05:34:23;7.20;;;2.83;;
59109;SDS011;44895;47.438;18.978;2023-07-13T05:37:27;6.03;;;2.88;;
59109;SDS011;44895;47.438;18.978;2023-07-13T05:40:31;6.82;;;2.75;;
59109;SDS011;44895;47.438;18.978;2023-07-13T05:43:36;7.82;;;2.35;;
59109;SDS011;44895;47.438;18.978;2023-07-13T05:46:40;7.10;;;2.40;;
59109;SDS011;44895;47.438;18.978;2023-07-13T05:49:43;6.15;;;2.03;;
59109;SDS011;44895;47.438;18.978;2023-07-13T05:52:47;4.65;;;1.60;;
59109;SDS011;44895;47.438;18.978;2023-07-13T05:55:53;4.30;;;1.58;;
59109;SDS011;44895;47.438;18.978;2023-07-13T05:58:58;5.00;;;1.30;;
59109;SDS011;44895;47.438;18.978;2023-07-13T06:02:02;7.38;;;2.03;;
59109;SDS011;44895;47.438;18.978;2023-07-13T06:05:06;4.07;;;1.52;;
59109;SDS011;44895;47.438;18.978;2023-07-13T06:08:10;5.78;;;2.00;;
59109;SDS011;44895;47.438;18.978;2023-07-13T06:11:21;4.25;;;1.90;;
59109;SDS011;44895;47.438;18.978;2023-07-13T06:14:26;4.07;;;1.77;;
59109;SDS011;44895;47.438;18.978;2023-07-13T06:17:31;3.88;;;1.75;;
59109;SDS011;44895;47.438;18.978;2023-07-13T06:20:34;5.00;;;1.63;;
59109;SDS011;44895;47.438;18.978;2023-07-13T06:23:39;5.78;;;1.80;;
59109;SDS011;44895;47.438;18.978;2023-07-13T06:26:43;5.30;;;2.00;;
59109;SDS011;44895;47.438;18.978;2023-07-13T06:29:47;4.85;;;1.65;;
59109;SDS011;44895;47.438;18.978;2023-07-13T06:32:51;1.98;;;0.98;;
59109;SDS011;44895;47.438;18.978;2023-07-13T06:35:55;4.60;;;1.30;;
59109;SDS011;44895;47.438;18.978;2023-07-13T06:38:59;3.67;;;1.80;;
59109;SDS011;44895;47.438;18.978;2023-07-13T06:42:03;4.65;;;1.67;;
59109;SDS011;44895;47.438;18.978;2023-07-13T06:45:08;4.07;;;1.33;;
59109;SDS011;44895;47.438;18.978;2023-07-13T06:48:13;5.07;;;1.38;;
59109;SDS011;44895;47.438;18.978;2023-07-13T06:51:18;4.15;;;1.70;;
59109;SDS011;44895;47.438;18.978;2023-07-13T06:54:22;4.38;;;1.80;;
59109;SDS011;44895;47.438;18.978;2023-07-13T06:57:26;5.05;;;1.95;;
59109;SDS011;44895;47.438;18.978;2023-07-13T07:00:31;3.80;;;1.35;;
59109;SDS011;44895;47.438;18.978;2023-07-13T07:03:35;8.45;;;1.40;;
59109;SDS011;44895;47.438;18.978;2023-07-13T07:06:40;3.67;;;1.55;;
59109;SDS011;44895;47.438;18.978;2023-07-13T07:09:43;4.68;;;1.63;;
59109;SDS011;44895;47.438;18.978;2023-07-13T07:12:47;4.18;;;1.25;;
59109;SDS011;44895;47.438;18.978;2023-07-13T07:15:51;5.88;;;2.17;;
59109;SDS011;44895;47.438;18.978;2023-07-13T07:18:55;3.72;;;2.10;;
59109;SDS011;44895;47.438;18.978;2023-07-13T07:21:59;4.40;;;1.77;;
59109;SDS011;44895;47.438;18.978;2023-07-13T07:25:03;5.78;;;2.13;;
59109;SDS011;44895;47.438;18.978;2023-07-13T07:28:07;5.13;;;1.90;;
59109;SDS011;44895;47.438;18.978;2023-07-13T07:31:11;5.65;;;2.20;;
59109;SDS011;44895;47.438;18.978;2023-07-13T07:34:16;3.95;;;2.08;;
59109;SDS011;44895;47.438;18.978;2023-07-13T07:37:20;5.60;;;1.85;;
59109;SDS011;44895;47.438;18.978;2023-07-13T07:40:25;6.93;;;2.30;;
59109;SDS011;44895;47.438;18.978;2023-07-13T07:43:29;4.53;;;1.73;;
59109;SDS011;44895;47.438;18.978;2023-07-13T07:46:34;6.03;;;2.13;;
59109;SDS011;44895;47.438;18.978;2023-07-13T07:49:38;4.22;;;1.67;;
59109;SDS011;44895;47.438;18.978;2023-07-13T07:52:41;4.70;;;1.52;;
59109;SDS011;44895;47.438;18.978;2023-07-13T07:55:47;4.47;;;1.40;;
59109;SDS011;44895;47.438;18.978;2023-07-13T07:58:51;5.50;;;1.98;;
59109;SDS011;44895;47.438;18.978;2023-07-13T08:01:55;5.25;;;1.52;;
59109;SDS011;44895;47.438;18.978;2023-07-13T08:04:59;4.47;;;1.63;;
59109;SDS011;44895;47.438;18.978;2023-07-13T08:08:03;5.60;;;1.85;;
59109;SDS011;44895;47.438;18.978;2023-07-13T08:11:08;5.07;;;1.60;;
59109;SDS011;44895;47.438;18.978;2023-07-13T08:14:13;3.40;;;1.15;;
59109;SDS011;44895;47.438;18.978;2023-07-13T08:17:17;4.57;;;1.55;;
59109;SDS011;44895;47.438;18.978;2023-07-13T08:20:21;5.72;;;1.90;;
59109;SDS011;44895;47.438;18.978;2023-07-13T08:23:25;5.18;;;1.92;;
59109;SDS011;44895;47.438;18.978;2023-07-13T08:26:29;5.38;;;1.65;;
59109;SDS011;44895;47.438;18.978;2023-07-13T08:29:33;4.53;;;2.03;;
59109;SDS011;44895;47.438;18.978;2023-07-13T08:32:37;5.95;;;2.20;;
59109;SDS011;44895;47.438;18.978;2023-07-13T08:35:41;3.67;;;1.85;;
59109;SDS011;44895;47.438;18.978;2023-07-13T08:38:45;4.75;;;2.20;;
59109;SDS011;44895;47.438;18.978;2023-07-13T08:41:50;9.10;;;2.35;;
59109;SDS011;44895;47.438;18.978;2023-07-13T08:45:19;6.13;;;2.22;;
59109;SDS011;44895;47.438;18.978;2023-07-13T08:51:51;4.25;;;2.00;;
59109;SDS011;44895;47.438;18.978;2023-07-13T08:55:23;3.42;;;1.50;;
59109;SDS011;44895;47.438;18.978;2023-07-13T08:58:32;4.57;;;2.13;;
59109;SDS011;44895;47.438;18.978;2023-07-13T09:11:52;5.72;;;2.35;;
59109;SDS011;44895;47.438;18.978;2023-07-13T09:15:02;8.45;;;2.88;;
59109;SDS011;44895;47.438;18.978;2023-07-13T09:21:28;5.90;;;2.25;;
59109;SDS011;44895;47.438;18.978;2023-07-13T09:24:37;5.90;;;2.25;;
59109;SDS011;44895;47.438;18.978;2023-07-13T09:28:10;4.63;;;2.17;;
59109;SDS011;44895;47.438;18.978;2023-07-13T09:31:53;4.40;;;2.15;;
59109;SDS011;44895;47.438;18.978;2023-07-13T09:34:53;5.38;;;2.40;;
59109;SDS011;44895;47.438;18.978;2023-07-13T09:37:59;11.07;;;3.45;;
59109;SDS011;44895;47.438;18.978;2023-07-13T09:41:19;5.95;;;2.85;;
59109;SDS011;44895;47.438;18.978;2023-07-13T09:45:06;5.68;;;2.25;;
59109;SDS011;44895;47.438;18.978;2023-07-13T09:47:51;6.75;;;3.20;;
59109;SDS011;44895;47.438;18.978;2023-07-13T09:51:06;19.08;;;3.00;;
59109;SDS011;44895;47.438;18.978;2023-07-13T09:54:20;4.45;;;2.15;;
59109;SDS011;44895;47.438;18.978;2023-07-13T09:57:27;5.22;;;2.53;;
59109;SDS011;44895;47.438;18.978;2023-07-13T10:00:31;9.30;;;2.92;;
59109;SDS011;44895;47.438;18.978;2023-07-13T10:03:36;6.80;;;2.10;;
59109;SDS011;44895;47.438;18.978;2023-07-13T10:06:46;4.78;;;2.10;;
59109;SDS011;44895;47.438;18.978;2023-07-13T10:10:01;9.77;;;1.98;;
59109;SDS011;44895;47.438;18.978;2023-07-13T10:13:15;4.40;;;2.05;;
59109;SDS011;44895;47.438;18.978;2023-07-13T10:16:30;5.50;;;2.30;;
59109;SDS011;44895;47.438;18.978;2023-07-13T10:19:37;5.72;;;2.25;;
59109;SDS011;44895;47.438;18.978;2023-07-13T10:22:50;5.82;;;2.33;;
59109;SDS011;44895;47.438;18.978;2023-07-13T10:26:00;7.07;;;2.05;;
59109;SDS011;44895;47.438;18.978;2023-07-13T10:29:06;4.20;;;1.90;;
59109;SDS011;44895;47.438;18.978;2023-07-13T10:32:15;5.40;;;1.75;;
59109;SDS011;44895;47.438;18.978;2023-07-13T10:35:20;5.78;;;2.15;;
59109;SDS011;44895;47.438;18.978;2023-07-13T10:38:26;6.68;;;2.63;;
59109;SDS011;44895;47.438;18.978;2023-07-13T10:41:36;4.97;;;2.05;;
59109;SDS011;44895;47.438;18.978;2023-07-13T10:44:43;6.38;;;2.47;;
59109;SDS011;44895;47.438;18.978;2023-07-13T10:47:48;3.92;;;1.70;;
59109;SDS011;44895;47.438;18.978;2023-07-13T10:50:54;6.35;;;2.00;;
59109;SDS011;44895;47.438;18.978;2023-07-13T10:57:18;5.32;;;2.05;;
59109;SDS011;44895;47.438;18.978;2023-07-13T11:00:23;3.67;;;1.88;;
59109;SDS011;44895;47.438;18.978;2023-07-13T11:03:29;5.97;;;1.90;;
59109;SDS011;44895;47.438;18.978;2023-07-13T11:06:39;5.97;;;2.13;;
59109;SDS011;44895;47.438;18.978;2023-07-13T11:09:45;3.97;;;1.55;;
59109;SDS011;44895;47.438;18.978;2023-07-13T11:12:54;3.88;;;1.70;;
59109;SDS011;44895;47.438;18.978;2023-07-13T11:15:58;4.07;;;1.85;;
59109;SDS011;44895;47.438;18.978;2023-07-13T11:28:33;3.92;;;1.70;;
59109;SDS011;44895;47.438;18.978;2023-07-13T11:31:38;11.27;;;2.78;;
59109;SDS011;44895;47.438;18.978;2023-07-13T11:34:43;4.18;;;1.88;;
59109;SDS011;44895;47.438;18.978;2023-07-13T11:37:47;4.03;;;2.00;;
59109;SDS011;44895;47.438;18.978;2023-07-13T11:40:53;5.72;;;2.15;;
59109;SDS011;44895;47.438;18.978;2023-07-13T11:44:06;4.15;;;1.90;;
59109;SDS011;44895;47.438;18.978;2023-07-13T11:47:27;5.18;;;1.88;;
59109;SDS011;44895;47.438;18.978;2023-07-13T11:50:34;3.45;;;1.85;;
59109;SDS011;44895;47.438;18.978;2023-07-13T11:53:44;5.30;;;2.20;;
59109;SDS011;44895;47.438;18.978;2023-07-13T11:56:50;3.85;;;1.58;;
59109;SDS011;44895;47.438;18.978;2023-07-13T11:59:55;4.43;;;1.75;;
59109;SDS011;44895;47.438;18.978;2023-07-13T12:02:59;4.80;;;2.10;;
59109;SDS011;44895;47.438;18.978;2023-07-13T12:09:23;6.50;;;2.17;;
59109;SDS011;44895;47.438;18.978;2023-07-13T12:12:30;4.32;;;1.60;;
59109;SDS011;44895;47.438;18.978;2023-07-13T12:18:38;4.70;;;2.00;;
59109;SDS011;44895;47.438;18.978;2023-07-13T12:21:44;3.72;;;2.05;;
59109;SDS011;44895;47.438;18.978;2023-07-13T12:24:49;4.50;;;2.15;;
59109;SDS011;44895;47.438;18.978;2023-07-13T12:27:55;6.33;;;2.00;;
59109;SDS011;44895;47.438;18.978;2023-07-13T12:31:04;5.13;;;2.30;;
59109;SDS011;44895;47.438;18.978;2023-07-13T12:34:11;4.05;;;1.58;;
59109;SDS011;44895;47.438;18.978;2023-07-13T12:37:23;3.28;;;1.70;;
59109;SDS011;44895;47.438;18.978;2023-07-13T12:40:31;9.20;;;2.58;;
59109;SDS011;44895;47.438;18.978;2023-07-13T12:43:37;5.63;;;2.35;;
59109;SDS011;44895;47.438;18.978;2023-07-13T12:50:18;10.10;;;2.33;;
59109;SDS011;44895;47.438;18.978;2023-07-13T12:53:28;6.68;;;2.55;;
59109;SDS011;44895;47.438;18.978;2023-07-13T12:56:34;5.07;;;2.60;;
59109;SDS011;44895;47.438;18.978;2023-07-13T12:59:39;7.63;;;2.70;;
59109;SDS011;44895;47.438;18.978;2023-07-13T13:02:43;6.07;;;2.58;;
59109;SDS011;44895;47.438;18.978;2023-07-13T13:05:47;3.85;;;1.80;;
59109;SDS011;44895;47.438;18.978;2023-07-13T13:08:53;13.32;;;2.85;;
59109;SDS011;44895;47.438;18.978;2023-07-13T13:11:59;5.90;;;2.60;;
59109;SDS011;44895;47.438;18.978;2023-07-13T13:15:02;5.30;;;2.15;;
59109;SDS011;44895;47.438;18.978;2023-07-13T13:18:13;4.70;;;2.50;;
59109;SDS011;44895;47.438;18.978;2023-07-13T13:21:20;6.40;;;2.00;;
59109;SDS011;44895;47.438;18.978;2023-07-13T13:24:26;5.93;;;2.50;;
59109;SDS011;44895;47.438;18.978;2023-07-13T13:27:31;5.03;;;2.15;;
59109;SDS011;44895;47.438;18.978;2023-07-13T13:30:34;6.03;;;2.38;;
59109;SDS011;44895;47.438;18.978;2023-07-13T13:33:39;6.38;;;2.95;;
59109;SDS011;44895;47.438;18.978;2023-07-13T13:36:49;5.13;;;1.92;;
59109;SDS011;44895;47.438;18.978;2023-07-13T13:39:54;4.57;;;2.25;;
59109;SDS011;44895;47.438;18.978;2023-07-13T13:42:58;8.18;;;2.58;;
59109;SDS011;44895;47.438;18.978;2023-07-13T13:46:02;6.55;;;2.13;;
59109;SDS011;44895;47.438;18.978;2023-07-13T13:49:22;5.93;;;2.70;;
59109;SDS011;44895;47.438;18.978;2023-07-13T13:52:28;6.18;;;2.78;;
59109;SDS011;44895;47.438;18.978;2023-07-13T13:55:32;5.22;;;1.90;;
59109;SDS011;44895;47.438;18.978;2023-07-13T13:58:36;4.75;;;2.10;;
59109;SDS011;44895;47.438;18.978;2023-07-13T14:01:40;4.38;;;2.00;;
59109;SDS011;44895;47.438;18.978;2023-07-13T14:04:47;4.18;;;2.00;;
59109;SDS011;44895;47.438;18.978;2023-07-13T14:07:54;3.97;;;1.63;;
59109;SDS011;44895;47.438;18.978;2023-07-13T14:10:59;5.18;;;2.15;;
59109;SDS011;44895;47.438;18.978;2023-07-13T14:14:04;4.38;;;2.25;;
59109;SDS011;44895;47.438;18.978;2023-07-13T14:17:19;5.25;;;2.50;;
59109;SDS011;44895;47.438;18.978;2023-07-13T14:20:28;4.38;;;2.10;;
59109;SDS011;44895;47.438;18.978;2023-07-13T14:23:33;4.45;;;2.28;;
59109;SDS011;44895;47.438;18.978;2023-07-13T14:26:37;7.78;;;2.13;;
59109;SDS011;44895;47.438;18.978;2023-07-13T14:29:44;5.45;;;2.35;;
59109;SDS011;44895;47.438;18.978;2023-07-13T14:32:48;5.13;;;2.10;;
59109;SDS011;44895;47.438;18.978;2023-07-13T14:35:55;5.30;;;2.42;;
59109;SDS011;44895;47.438;18.978;2023-07-13T14:39:01;6.38;;;2.58;;
59109;SDS011;44895;47.438;18.978;2023-07-13T14:42:23;7.85;;;2.22;;
59109;SDS011;44895;47.438;18.978;2023-07-13T14:45:27;5.95;;;2.17;;
59109;SDS011;44895;47.438;18.978;2023-07-13T14:48:33;4.65;;;1.95;;
59109;SDS011;44895;47.438;18.978;2023-07-13T14:51:37;4.13;;;2.20;;
59109;SDS011;44895;47.438;18.978;2023-07-13T14:54:41;6.60;;;2.30;;
59109;SDS011;44895;47.438;18.978;2023-07-13T14:57:48;4.53;;;1.95;;
59109;SDS011;44895;47.438;18.978;2023-07-13T15:00:54;5.20;;;1.80;;
59109;SDS011;44895;47.438;18.978;2023-07-13T15:04:02;5.80;;;2.53;;
59109;SDS011;44895;47.438;18.978;2023-07-13T15:07:07;4.70;;;2.10;;
59109;SDS011;44895;47.438;18.978;2023-07-13T15:10:21;4.75;;;2.05;;
59109;SDS011;44895;47.438;18.978;2023-07-13T15:13:28;5.22;;;2.67;;
59109;SDS011;44895;47.438;18.978;2023-07-13T15:16:33;5.40;;;2.55;;
59109;SDS011;44895;47.438;18.978;2023-07-13T15:19:39;7.03;;;2.60;;
59109;SDS011;44895;47.438;18.978;2023-07-13T15:22:44;4.70;;;2.67;;
59109;SDS011;44895;47.438;18.978;2023-07-13T15:25:50;5.40;;;2.23;;
59109;SDS011;44895;47.438;18.978;2023-07-13T15:28:55;5.03;;;2.30;;
59109;SDS011;44895;47.438;18.978;2023-07-13T15:31:59;5.60;;;2.60;;
59109;SDS011;44895;47.438;18.978;2023-07-13T15:35:03;4.65;;;2.03;;
59109;SDS011;44895;47.438;18.978;2023-07-13T15:41:42;5.60;;;1.90;;
59109;SDS011;44895;47.438;18.978;2023-07-13T15:44:48;5.07;;;2.03;;
59109;SDS011;44895;47.438;18.978;2023-07-13T15:47:52;5.75;;;2.20;;
59109;SDS011;44895;47.438;18.978;2023-07-13T15:51:00;7.50;;;2.40;;
59109;SDS011;44895;47.438;18.978;2023-07-13T15:54:08;5.32;;;2.10;;
59109;SDS011;44895;47.438;18.978;2023-07-13T15:57:16;11.05;;;2.60;;
59109;SDS011;44895;47.438;18.978;2023-07-13T16:00:22;6.75;;;3.38;;
59109;SDS011;44895;47.438;18.978;2023-07-13T16:03:28;6.25;;;2.75;;
59109;SDS011;44895;47.438;18.978;2023-07-13T16:06:33;7.72;;;3.35;;
59109;SDS011;44895;47.438;18.978;2023-07-13T16:09:40;8.02;;;3.08;;
59109;SDS011;44895;47.438;18.978;2023-07-13T16:12:45;4.18;;;2.10;;
59109;SDS011;44895;47.438;18.978;2023-07-13T16:15:51;5.00;;;2.20;;
59109;SDS011;44895;47.438;18.978;2023-07-13T16:18:56;4.60;;;2.33;;
59109;SDS011;44895;47.438;18.978;2023-07-13T16:22:02;5.25;;;2.78;;
59109;SDS011;44895;47.438;18.978;2023-07-13T16:25:19;5.17;;;2.00;;
59109;SDS011;44895;47.438;18.978;2023-07-13T16:31:31;5.78;;;2.78;;
59109;SDS011;44895;47.438;18.978;2023-07-13T16:34:36;4.82;;;1.98;;
59109;SDS011;44895;47.438;18.978;2023-07-13T16:37:41;5.50;;;2.58;;
59109;SDS011;44895;47.438;18.978;2023-07-13T16:40:46;5.95;;;2.65;;
59109;SDS011;44895;47.438;18.978;2023-07-13T16:43:53;8.13;;;2.60;;
59109;SDS011;44895;47.438;18.978;2023-07-13T16:46:57;8.80;;;2.72;;
59109;SDS011;44895;47.438;18.978;2023-07-13T16:50:09;5.53;;;2.10;;
59109;SDS011;44895;47.438;18.978;2023-07-13T16:53:19;5.38;;;2.28;;
59109;SDS011;44895;47.438;18.978;2023-07-13T16:56:27;4.85;;;2.40;;
59109;SDS011;44895;47.438;18.978;2023-07-13T16:59:32;6.15;;;2.10;;
59109;SDS011;44895;47.438;18.978;2023-07-13T17:02:37;5.50;;;2.13;;
59109;SDS011;44895;47.438;18.978;2023-07-13T17:05:42;5.38;;;2.42;;
59109;SDS011;44895;47.438;18.978;2023-07-13T17:08:47;6.40;;;2.88;;
59109;SDS011;44895;47.438;18.978;2023-07-13T17:11:54;7.38;;;2.63;;
59109;SDS011;44895;47.438;18.978;2023-07-13T17:15:00;6.88;;;2.78;;
59109;SDS011;44895;47.438;18.978;2023-07-13T17:18:05;5.80;;;2.20;;
59109;SDS011;44895;47.438;18.978;2023-07-13T17:21:13;6.03;;;3.03;;
59109;SDS011;44895;47.438;18.978;2023-07-13T17:24:20;7.95;;;2.58;;
59109;SDS011;44895;47.438;18.978;2023-07-13T17:27:29;4.18;;;2.13;;
59109;SDS011;44895;47.438;18.978;2023-07-13T17:30:37;5.93;;;2.55;;
59109;SDS011;44895;47.438;18.978;2023-07-13T17:33:43;4.95;;;2.20;;
59109;SDS011;44895;47.438;18.978;2023-07-13T17:36:49;5.43;;;2.47;;
59109;SDS011;44895;47.438;18.978;2023-07-13T17:39:54;5.15;;;2.63;;
59109;SDS011;44895;47.438;18.978;2023-07-13T17:42:58;6.63;;;2.85;;
59109;SDS011;44895;47.438;18.978;2023-07-13T17:46:08;8.98;;;2.95;;
59109;SDS011;44895;47.438;18.978;2023-07-13T17:49:22;7.68;;;2.88;;
59109;SDS011;44895;47.438;18.978;2023-07-13T17:52:35;6.95;;;2.47;;
59109;SDS011;44895;47.438;18.978;2023-07-13T17:55:39;5.50;;;2.25;;
59109;SDS011;44895;47.438;18.978;2023-07-13T17:58:44;9.85;;;3.25;;
59109;SDS011;44895;47.438;18.978;2023-07-13T18:01:50;7.05;;;2.78;;
59109;SDS011;44895;47.438;18.978;2023-07-13T18:04:56;5.00;;;2.10;;
59109;SDS011;44895;47.438;18.978;2023-07-13T18:08:01;5.88;;;2.80;;
59109;SDS011;44895;47.438;18.978;2023-07-13T18:11:10;5.97;;;3.10;;
59109;SDS011;44895;47.438;18.978;2023-07-13T18:14:15;5.30;;;2.53;;
59109;SDS011;44895;47.438;18.978;2023-07-13T18:17:20;6.57;;;2.60;;
59109;SDS011;44895;47.438;18.978;2023-07-13T18:20:25;5.75;;;2.38;;
59109;SDS011;44895;47.438;18.978;2023-07-13T18:23:30;5.28;;;2.75;;
59109;SDS011;44895;47.438;18.978;2023-07-13T18:26:37;4.75;;;2.22;;
59109;SDS011;44895;47.438;18.978;2023-07-13T18:29:42;5.93;;;2.88;;
59109;SDS011;44895;47.438;18.978;2023-07-13T18:32:52;6.03;;;2.42;;
59109;SDS011;44895;47.438;18.978;2023-07-13T18:35:58;6.28;;;2.58;;
59109;SDS011;44895;47.438;18.978;2023-07-13T18:39:08;6.20;;;2.92;;
59109;SDS011;44895;47.438;18.978;2023-07-13T18:42:18;5.18;;;2.67;;
59109;SDS011;44895;47.438;18.978;2023-07-13T18:45:23;7.38;;;2.33;;
59109;SDS011;44895;47.438;18.978;2023-07-13T18:48:29;6.40;;;2.60;;
59109;SDS011;44895;47.438;18.978;2023-07-13T18:51:36;6.28;;;2.88;;
59109;SDS011;44895;47.438;18.978;2023-07-13T18:54:41;7.18;;;3.00;;
59109;SDS011;44895;47.438;18.978;2023-07-13T18:57:45;7.03;;;2.42;;
59109;SDS011;44895;47.438;18.978;2023-07-13T19:00:51;6.22;;;2.80;;
59109;SDS011;44895;47.438;18.978;2023-07-13T19:07:24;7.13;;;3.13;;
59109;SDS011;44895;47.438;18.978;2023-07-13T19:10:29;7.65;;;2.92;;
59109;SDS011;44895;47.438;18.978;2023-07-13T19:13:33;7.50;;;2.75;;
59109;SDS011;44895;47.438;18.978;2023-07-13T19:16:40;6.38;;;2.58;;